createdAt,value
2018-08-28T00:00:09.207Z,15.86
2018-08-28T00:00:29.561Z,15.84
2018-08-28T00:00:51.026Z,15.82
2018-08-28T00:01:10.740Z,15.82
2018-08-28T00:01:30.672Z,15.80
2018-08-28T00:01:51.855Z,15.80
2018-08-28T00:02:11.279Z,15.80
2018-08-28T00:02:31.660Z,15.78
2018-08-28T00:02:52.317Z,15.77
2018-08-28T00:03:12.206Z,15.75
2018-08-28T00:03:32.585Z,15.75
2018-08-28T00:03:53.411Z,15.73
2018-08-28T00:04:13.340Z,15.74
2018-08-28T00:04:34.371Z,15.73
2018-08-28T00:04:54.114Z,15.74
2018-08-28T00:05:14.286Z,15.73
2018-08-28T00:05:34.903Z,15.74
2018-08-28T00:05:54.343Z,15.73
2018-08-28T00:06:14.823Z,15.74
2018-08-28T00:06:36.109Z,15.72
2018-08-28T00:06:55.545Z,15.72
2018-08-28T00:07:15.919Z,15.72
2018-08-28T00:07:36.956Z,15.72
2018-08-28T00:07:56.366Z,15.72
2018-08-28T00:08:16.746Z,15.71
2018-08-28T00:08:37.573Z,15.70
2018-08-28T00:08:57.555Z,15.70
2018-08-28T00:09:18.115Z,15.68
2018-08-28T00:09:38.299Z,15.67
2018-08-28T00:09:58.223Z,15.66
2018-08-28T00:10:19.454Z,15.65
2018-08-28T00:10:39.398Z,15.64
2018-08-28T00:10:59.355Z,15.63
2018-08-28T00:11:20.788Z,15.62
2018-08-28T00:11:40.405Z,15.61
2018-08-28T00:12:00.388Z,15.60
2018-08-28T00:12:21.922Z,15.59
2018-08-28T00:12:41.125Z,15.58
2018-08-28T00:13:01.017Z,15.58
2018-08-28T00:13:22.056Z,15.57
2018-08-28T00:13:41.742Z,15.56
2018-08-28T00:14:01.988Z,15.54
2018-08-28T00:14:22.461Z,15.52
2018-08-28T00:14:42.395Z,15.54
2018-08-28T00:15:02.756Z,15.52
2018-08-28T00:15:23.490Z,15.53
2018-08-28T00:15:43.394Z,15.52
2018-08-28T00:16:04.743Z,15.51
2018-08-28T00:16:24.388Z,15.51
2018-08-28T00:16:44.342Z,15.50
2018-08-28T00:17:05.801Z,15.50
2018-08-28T00:17:25.030Z,15.50
2018-08-28T00:17:45.526Z,15.49
2018-08-28T00:18:06.907Z,15.48
2018-08-28T00:18:26.370Z,15.48
2018-08-28T00:18:46.811Z,15.47
2018-08-28T00:19:07.680Z,15.46
2018-08-28T00:19:27.569Z,15.46
2018-08-28T00:19:48.026Z,15.46
2018-08-28T00:20:08.713Z,15.46
2018-08-28T00:20:28.598Z,15.46
2018-08-28T00:20:49.824Z,15.47
2018-08-28T00:21:09.291Z,15.47
2018-08-28T00:21:29.735Z,15.46
2018-08-28T00:21:51.310Z,15.45
2018-08-28T00:22:10.132Z,15.44
2018-08-28T00:22:30.571Z,15.44
2018-08-28T00:22:51.183Z,15.43
2018-08-28T00:23:11.513Z,15.42
2018-08-28T00:23:31.383Z,15.39
2018-08-28T00:23:52.346Z,15.38
2018-08-28T00:24:12.257Z,15.38
2018-08-28T00:24:32.724Z,15.36
2018-08-28T00:24:53.461Z,15.35
2018-08-28T00:25:13.507Z,15.35
2018-08-28T00:25:34.189Z,15.33
2018-08-28T00:26:13.564Z,15.31
2018-08-28T00:26:34.915Z,15.30
2018-08-28T00:26:54.404Z,15.28
2018-08-28T00:27:14.821Z,15.26
2018-08-28T00:27:36.151Z,15.25
2018-08-28T00:27:55.584Z,15.23
2018-08-28T00:28:16.226Z,15.22
2018-08-28T00:28:36.876Z,15.20
2018-08-28T00:28:56.296Z,15.18
2018-08-28T00:29:16.677Z,15.16
2018-08-28T00:29:37.548Z,15.15
2018-08-28T00:29:57.475Z,15.14
2018-08-28T00:30:18.456Z,15.13
2018-08-28T00:30:38.742Z,15.12
2018-08-28T00:30:59.590Z,15.11
2018-08-28T00:31:20.000Z,15.09
2018-08-28T00:31:39.685Z,15.08
2018-08-28T00:32:20.616Z,15.06
2018-08-28T00:32:40.036Z,15.00
2018-08-28T00:33:00.393Z,15.00
2018-08-28T00:33:21.906Z,14.98
2018-08-28T00:33:40.870Z,14.95
2018-08-28T00:34:01.248Z,14.95
2018-08-28T00:34:22.393Z,14.93
2018-08-28T00:34:41.804Z,14.92
2018-08-28T00:35:02.543Z,14.92
2018-08-28T00:35:22.536Z,14.90
2018-08-28T00:35:42.932Z,14.91
2018-08-28T00:36:04.069Z,14.89
2018-08-28T00:36:23.747Z,14.88
2018-08-28T00:36:43.699Z,14.86
2018-08-28T00:37:05.085Z,14.84
2018-08-28T00:37:24.597Z,14.82
2018-08-28T00:37:44.446Z,14.79
2018-08-28T00:38:05.912Z,14.77
2018-08-28T00:38:25.262Z,14.75
2018-08-28T00:38:45.714Z,14.73
2018-08-28T00:39:06.839Z,14.70
2018-08-28T00:39:26.192Z,14.70
2018-08-28T00:39:48.609Z,14.68
2018-08-28T00:40:13.094Z,14.68
2018-08-28T00:40:27.415Z,14.66
2018-08-28T00:40:53.269Z,14.64
2018-08-28T00:41:12.938Z,14.63
2018-08-28T00:41:33.528Z,14.62
2018-08-28T00:41:51.565Z,14.60
2018-08-28T00:42:09.372Z,14.57
2018-08-28T00:42:29.287Z,14.57
2018-08-28T00:42:50.695Z,14.55
2018-08-28T00:43:10.113Z,14.54
2018-08-28T00:43:30.491Z,14.53
2018-08-28T00:43:51.617Z,14.52
2018-08-28T00:44:11.042Z,14.50
2018-08-28T00:44:31.423Z,14.49
2018-08-28T00:44:52.336Z,14.47
2018-08-28T00:45:12.510Z,14.48
2018-08-28T00:45:32.362Z,14.45
2018-08-28T00:45:53.103Z,14.45
2018-08-28T00:46:13.014Z,14.44
2018-08-28T00:46:34.226Z,14.43
2018-08-28T00:46:53.937Z,14.41
2018-08-28T00:47:13.825Z,14.38
2018-08-28T00:47:34.949Z,14.38
2018-08-28T00:47:54.743Z,14.37
2018-08-28T00:48:14.654Z,14.36
2018-08-28T00:48:35.898Z,14.36
2018-08-28T00:48:55.326Z,14.34
2018-08-28T00:49:15.797Z,14.34
2018-08-28T00:49:36.679Z,14.33
2018-08-28T00:49:56.652Z,14.31
2018-08-28T00:50:17.205Z,14.31
2018-08-28T00:50:37.378Z,14.30
2018-08-28T00:50:57.268Z,14.28
2018-08-28T00:51:17.644Z,14.28
2018-08-28T00:51:38.362Z,14.28
2018-08-28T00:52:18.759Z,14.25
2018-08-28T00:52:38.849Z,14.23
2018-08-28T00:52:58.815Z,14.22
2018-08-28T00:53:20.245Z,14.20
2018-08-28T00:53:39.673Z,14.20
2018-08-28T00:54:00.053Z,14.19
2018-08-28T00:54:21.372Z,14.18
2018-08-28T00:54:40.806Z,14.17
2018-08-28T00:55:01.262Z,14.16
2018-08-28T00:55:22.328Z,14.17
2018-08-28T00:55:41.674Z,14.16
2018-08-28T00:56:02.329Z,14.16
2018-08-28T00:56:22.389Z,14.16
2018-08-28T00:56:42.351Z,14.15
2018-08-28T00:57:03.172Z,14.15
2018-08-28T00:57:23.348Z,14.16
2018-08-28T00:57:43.199Z,14.14
2018-08-28T00:58:04.609Z,14.14
2018-08-28T00:58:24.279Z,14.13
2018-08-28T00:58:44.139Z,14.11
2018-08-28T00:59:05.539Z,14.09
2018-08-28T00:59:25.001Z,14.09
2018-08-28T00:59:45.565Z,14.06
2018-08-28T01:00:06.476Z,14.05
2018-08-28T01:00:25.906Z,14.04
2018-08-28T01:00:46.259Z,14.02
2018-08-28T01:01:07.216Z,14.01
2018-08-28T01:01:27.167Z,14.00
2018-08-28T01:01:47.606Z,13.99
2018-08-28T01:02:08.320Z,13.97
2018-08-28T01:02:28.260Z,13.96
2018-08-28T01:02:49.305Z,13.95
2018-08-28T01:03:08.737Z,13.94
2018-08-28T01:03:29.190Z,13.95
2018-08-28T01:03:50.721Z,13.94
2018-08-28T01:04:09.583Z,13.95
2018-08-28T01:04:30.018Z,13.94
2018-08-28T01:04:51.270Z,13.95
2018-08-28T01:05:10.648Z,13.95
2018-08-28T01:05:31.102Z,13.92
2018-08-28T01:05:52.190Z,13.92
2018-08-28T01:06:11.594Z,13.91
2018-08-28T01:06:32.025Z,13.91
2018-08-28T01:06:52.746Z,13.91
2018-08-28T01:07:12.671Z,13.90
2018-08-28T01:07:33.442Z,13.90
2018-08-28T01:07:53.966Z,13.89
2018-08-28T01:08:13.318Z,13.88
2018-08-28T01:08:34.370Z,13.87
2018-08-28T01:08:54.079Z,13.86
2018-08-28T01:09:14.220Z,13.85
2018-08-28T01:09:34.992Z,13.84
2018-08-28T01:09:54.628Z,13.83
2018-08-28T01:10:14.730Z,13.82
2018-08-28T01:10:34.969Z,13.80
2018-08-28T01:10:54.954Z,13.78
2018-08-28T01:11:15.521Z,13.76
2018-08-28T01:11:36.214Z,13.73
2018-08-28T01:11:55.661Z,13.72
2018-08-28T01:12:16.038Z,13.71
2018-08-28T01:12:37.182Z,13.70
2018-08-28T01:12:56.590Z,13.68
2018-08-28T01:13:16.941Z,13.69
2018-08-28T01:13:37.629Z,13.68
2018-08-28T01:13:57.524Z,13.67
2018-08-28T01:14:18.230Z,13.69
2018-08-28T01:14:38.558Z,13.68
2018-08-28T01:14:58.447Z,13.68
2018-08-28T01:15:19.773Z,13.68
2018-08-28T01:15:39.244Z,13.68
2018-08-28T01:15:59.682Z,13.68
2018-08-28T01:16:20.923Z,13.67
2018-08-28T01:16:40.320Z,13.67
2018-08-28T01:17:00.710Z,13.67
2018-08-28T01:17:21.833Z,13.68
2018-08-28T01:17:41.263Z,13.68
2018-08-28T01:18:01.767Z,13.68
2018-08-28T01:18:22.187Z,13.68
2018-08-28T01:18:42.087Z,13.68
2018-08-28T01:19:02.823Z,13.67
2018-08-28T01:19:22.975Z,13.67
2018-08-28T01:19:42.913Z,13.67
2018-08-28T01:20:03.829Z,13.68
2018-08-28T01:20:24.018Z,13.68
2018-08-28T01:20:43.944Z,13.67
2018-08-28T01:21:05.486Z,13.68
2018-08-28T01:21:24.564Z,13.68
2018-08-28T01:21:44.468Z,13.70
2018-08-28T01:22:05.687Z,13.71
2018-08-28T01:22:25.152Z,13.71
2018-08-28T01:22:45.510Z,13.71
2018-08-28T01:23:06.822Z,13.73
2018-08-28T01:23:26.247Z,13.74
2018-08-28T01:23:46.602Z,13.74
2018-08-28T01:24:07.449Z,13.76
2018-08-28T01:24:27.298Z,13.75
2018-08-28T01:24:47.762Z,13.76
2018-08-28T01:25:08.486Z,13.77
2018-08-28T01:25:28.412Z,13.76
2018-08-28T01:25:49.842Z,13.77
2018-08-28T01:26:09.474Z,13.79
2018-08-28T01:26:29.442Z,13.80
2018-08-28T01:26:50.770Z,13.80
2018-08-28T01:27:10.128Z,13.82
2018-08-28T01:27:30.881Z,13.81
2018-08-28T01:27:51.596Z,13.83
2018-08-28T01:28:11.090Z,13.83
2018-08-28T01:28:31.535Z,13.85
2018-08-28T01:28:52.563Z,13.86
2018-08-28T01:29:11.914Z,13.85
2018-08-28T01:29:32.328Z,13.87
2018-08-28T01:29:53.029Z,13.87
2018-08-28T01:30:12.891Z,13.87
2018-08-28T01:30:34.025Z,13.87
2018-08-28T01:30:53.693Z,13.87
2018-08-28T01:31:13.610Z,13.88
2018-08-28T01:31:34.930Z,13.88
2018-08-28T01:31:54.408Z,13.88
2018-08-28T01:32:14.874Z,13.88
2018-08-28T01:32:35.960Z,13.89
2018-08-28T01:33:15.359Z,13.89
2018-08-28T01:33:36.789Z,13.90
2018-08-28T01:34:16.182Z,13.91
2018-08-28T01:34:37.116Z,13.90
2018-08-28T01:35:17.123Z,13.91
2018-08-28T01:35:37.848Z,13.92
2018-08-28T01:35:57.701Z,13.92
2018-08-28T01:36:18.680Z,13.92
2018-08-28T01:36:38.902Z,13.92
2018-08-28T01:36:58.799Z,13.92
2018-08-28T01:37:20.123Z,13.92
2018-08-28T01:37:39.699Z,13.92
2018-08-28T01:37:59.620Z,13.93
2018-08-28T01:38:20.959Z,13.93
2018-08-28T01:38:40.501Z,13.93
2018-08-28T01:39:00.783Z,13.94
2018-08-28T01:39:21.556Z,13.95
2018-08-28T01:39:43.852Z,13.94
2018-08-28T01:40:02.808Z,13.95
2018-08-28T01:40:22.231Z,13.95
2018-08-28T01:40:42.082Z,13.95
2018-08-28T01:41:02.780Z,13.96
2018-08-28T01:41:22.935Z,13.95
2018-08-28T01:41:42.793Z,13.96
2018-08-28T01:42:03.776Z,13.96
2018-08-28T01:42:26.380Z,13.98
2018-08-28T01:42:45.977Z,13.96
2018-08-28T01:43:04.779Z,13.98
2018-08-28T01:43:24.501Z,13.97
2018-08-28T01:43:44.378Z,13.97
2018-08-28T01:44:05.739Z,13.97
2018-08-28T01:44:25.258Z,13.98
2018-08-28T01:44:45.287Z,13.98
2018-08-28T01:45:06.127Z,13.98
2018-08-28T01:45:25.490Z,13.98
2018-08-28T01:45:45.850Z,13.99
2018-08-28T01:46:06.994Z,13.98
2018-08-28T01:46:26.436Z,13.98
2018-08-28T01:46:46.885Z,13.99
2018-08-28T01:47:07.643Z,14.00
2018-08-28T01:47:29.301Z,13.99
2018-08-28T01:47:47.703Z,14.00
2018-08-28T01:48:12.697Z,14.00
2018-08-28T01:48:28.553Z,14.01
2018-08-28T01:48:49.831Z,14.01
2018-08-28T01:49:09.190Z,14.02
2018-08-28T01:49:29.593Z,14.02
2018-08-28T01:49:50.922Z,14.03
2018-08-28T01:50:10.395Z,14.02
2018-08-28T01:50:30.828Z,14.02
2018-08-28T01:51:11.287Z,14.03
2018-08-28T01:51:31.641Z,14.03
2018-08-28T01:52:12.101Z,14.04
2018-08-28T01:52:32.482Z,14.05
2018-08-28T01:52:53.133Z,14.04
2018-08-28T01:53:13.201Z,14.05
2018-08-28T01:53:33.231Z,14.04
2018-08-28T01:53:53.613Z,14.04
2018-08-28T01:54:13.546Z,14.04
2018-08-28T01:54:34.791Z,14.03
2018-08-28T01:54:54.781Z,14.04
2018-08-28T01:55:15.241Z,14.04
2018-08-28T01:55:35.917Z,14.05
2018-08-28T01:55:55.354Z,14.04
2018-08-28T01:56:15.903Z,14.05
2018-08-28T01:56:36.528Z,14.04
2018-08-28T01:56:55.882Z,14.04
2018-08-28T01:57:16.350Z,14.03
2018-08-28T01:57:37.197Z,14.04
2018-08-28T01:57:57.092Z,14.04
2018-08-28T01:58:17.569Z,14.04
2018-08-28T01:58:38.392Z,14.03
2018-08-28T01:58:58.377Z,14.03
2018-08-28T01:59:20.881Z,14.02
2018-08-28T01:59:39.916Z,14.03
2018-08-28T01:59:58.842Z,14.02
2018-08-28T02:00:19.978Z,14.01
2018-08-28T02:00:39.884Z,14.01
2018-08-28T02:00:59.771Z,14.01
2018-08-28T02:01:21.075Z,14.01
2018-08-28T02:01:40.467Z,13.99
2018-08-28T02:02:00.941Z,13.99
2018-08-28T02:02:21.610Z,13.99
2018-08-28T02:02:41.588Z,13.98
2018-08-28T02:03:02.502Z,13.98
2018-08-28T02:03:22.692Z,13.97
2018-08-28T02:03:42.591Z,13.95
2018-08-28T02:04:02.964Z,13.96
2018-08-28T02:04:23.704Z,13.96
2018-08-28T02:04:43.627Z,13.95
2018-08-28T02:05:04.943Z,13.96
2018-08-28T02:05:24.570Z,13.95
2018-08-28T02:05:44.461Z,13.95
2018-08-28T02:06:05.770Z,13.95
2018-08-28T02:06:25.202Z,13.95
2018-08-28T02:06:45.576Z,13.94
2018-08-28T02:07:06.713Z,13.94
2018-08-28T02:07:26.065Z,13.93
2018-08-28T02:07:46.503Z,13.92
2018-08-28T02:08:07.453Z,13.93
2018-08-28T02:08:27.370Z,13.92
2018-08-28T02:08:47.864Z,13.91
2018-08-28T02:09:08.576Z,13.92
2018-08-28T02:09:28.529Z,13.92
2018-08-28T02:10:09.415Z,13.90
2018-08-28T02:10:29.530Z,13.89
2018-08-28T02:10:50.446Z,13.89
2018-08-28T02:11:09.796Z,13.89
2018-08-28T02:11:30.249Z,13.87
2018-08-28T02:11:51.371Z,13.86
2018-08-28T02:12:10.747Z,13.87
2018-08-28T02:12:31.220Z,13.85
2018-08-28T02:12:52.122Z,13.84
2018-08-28T02:13:12.071Z,13.84
2018-08-28T02:13:32.393Z,13.82
2018-08-28T02:13:53.042Z,13.82
2018-08-28T02:14:12.900Z,13.82
2018-08-28T02:14:33.983Z,13.82
2018-08-28T02:14:53.675Z,13.81
2018-08-28T02:15:13.923Z,13.80
2018-08-28T02:15:34.409Z,13.80
2018-08-28T02:15:54.872Z,13.78
2018-08-28T02:16:14.816Z,13.79
2018-08-28T02:16:36.129Z,13.78
2018-08-28T02:16:55.578Z,13.77
2018-08-28T02:17:15.953Z,13.77
2018-08-28T02:17:37.076Z,13.78
2018-08-28T02:17:56.501Z,13.78
2018-08-28T02:18:16.882Z,13.78
2018-08-28T02:18:37.323Z,13.78
2018-08-28T02:18:57.737Z,13.77
2018-08-28T02:19:18.554Z,13.77
2018-08-28T02:19:38.704Z,13.76
2018-08-28T02:19:58.701Z,13.76
2018-08-28T02:20:20.098Z,13.75
2018-08-28T02:20:39.586Z,13.74
2018-08-28T02:21:00.002Z,13.75
2018-08-28T02:21:21.433Z,13.75
2018-08-28T02:22:01.038Z,13.73
2018-08-28T02:22:21.749Z,13.73
2018-08-28T02:22:41.181Z,13.73
2018-08-28T02:23:01.895Z,13.72
2018-08-28T02:23:22.383Z,13.73
2018-08-28T02:23:42.243Z,13.72
2018-08-28T02:24:03.124Z,13.72
2018-08-28T02:24:23.412Z,13.71
2018-08-28T02:24:43.326Z,13.72
2018-08-28T02:25:04.567Z,13.71
2018-08-28T02:25:24.251Z,13.70
2018-08-28T02:25:44.171Z,13.70
2018-08-28T02:26:05.593Z,13.71
2018-08-28T02:26:24.953Z,13.70
2018-08-28T02:26:45.446Z,13.71
2018-08-28T02:27:06.933Z,13.69
2018-08-28T02:27:26.771Z,13.69
2018-08-28T02:27:46.741Z,13.69
2018-08-28T02:28:07.600Z,13.70
2018-08-28T02:28:27.550Z,13.68
2018-08-28T02:28:48.103Z,13.68
2018-08-28T02:29:07.983Z,13.67
2018-08-28T02:29:28.542Z,13.65
2018-08-28T02:29:49.236Z,13.66
2018-08-28T02:30:09.016Z,13.65
2018-08-28T02:30:28.957Z,13.65
2018-08-28T02:30:50.266Z,13.64
2018-08-28T02:31:09.623Z,13.62
2018-08-28T02:31:30.156Z,13.63
2018-08-28T02:32:10.135Z,13.61
2018-08-28T02:32:30.594Z,13.60
2018-08-28T02:32:51.714Z,13.60
2018-08-28T02:33:11.085Z,13.59
2018-08-28T02:33:31.498Z,13.58
2018-08-28T02:33:52.378Z,13.57
2018-08-28T02:34:12.275Z,13.57
2018-08-28T02:34:32.658Z,13.55
2018-08-28T02:34:53.482Z,13.55
2018-08-28T02:35:13.743Z,13.55
2018-08-28T02:35:34.441Z,13.54
2018-08-28T02:35:54.004Z,13.53
2018-08-28T02:36:13.929Z,13.53
2018-08-28T02:36:35.052Z,13.51
2018-08-28T02:36:54.462Z,13.51
2018-08-28T02:37:14.903Z,13.50
2018-08-28T02:37:36.283Z,13.49
2018-08-28T02:37:55.714Z,13.48
2018-08-28T02:38:16.091Z,13.47
2018-08-28T02:38:36.587Z,13.46
2018-08-28T02:38:56.947Z,13.44
2018-08-28T02:39:17.324Z,13.44
2018-08-28T02:39:37.969Z,13.43
2018-08-28T02:39:57.893Z,13.41
2018-08-28T02:40:19.190Z,13.39
2018-08-28T02:40:39.016Z,13.39
2018-08-28T02:40:58.863Z,13.38
2018-08-28T02:41:20.267Z,13.37
2018-08-28T02:41:39.662Z,13.36
2018-08-28T02:42:00.040Z,13.35
2018-08-28T02:42:21.345Z,13.34
2018-08-28T02:42:40.793Z,13.32
2018-08-28T02:43:01.175Z,13.32
2018-08-28T02:43:22.401Z,13.31
2018-08-28T02:43:41.824Z,13.31
2018-08-28T02:44:02.655Z,13.30
2018-08-28T02:44:22.806Z,13.29
2018-08-28T02:44:42.667Z,13.28
2018-08-28T02:45:03.569Z,13.26
2018-08-28T02:45:23.745Z,13.27
2018-08-28T02:45:43.620Z,13.25
2018-08-28T02:46:05.010Z,13.25
2018-08-28T02:46:24.584Z,13.24
2018-08-28T02:46:44.457Z,13.23
2018-08-28T02:47:05.753Z,13.23
2018-08-28T02:47:25.167Z,13.23
2018-08-28T02:47:45.663Z,13.23
2018-08-28T02:48:07.070Z,13.24
2018-08-28T02:48:26.531Z,13.24
2018-08-28T02:48:46.983Z,13.22
2018-08-28T02:49:07.679Z,13.22
2018-08-28T02:49:27.529Z,13.21
2018-08-28T02:49:48.241Z,13.21
2018-08-28T02:50:08.429Z,13.20
2018-08-28T02:50:28.361Z,13.20
2018-08-28T02:50:49.681Z,13.20
2018-08-28T02:51:09.144Z,13.20
2018-08-28T02:51:29.593Z,13.20
2018-08-28T02:51:51.120Z,13.19
2018-08-28T02:52:10.001Z,13.20
2018-08-28T02:52:30.425Z,13.18
2018-08-28T02:52:51.948Z,13.19
2018-08-28T02:53:10.803Z,13.17
2018-08-28T02:53:51.829Z,13.16
2018-08-28T02:54:11.269Z,13.16
2018-08-28T02:54:31.659Z,13.15
2018-08-28T02:54:52.599Z,13.14
2018-08-28T02:55:12.444Z,13.14
2018-08-28T02:55:32.909Z,13.12
2018-08-28T02:55:53.697Z,13.12
2018-08-28T02:56:13.747Z,13.13
2018-08-28T02:56:35.082Z,13.11
2018-08-28T02:56:54.690Z,13.10
2018-08-28T02:57:14.556Z,13.09
2018-08-28T02:57:36.109Z,13.10
2018-08-28T02:57:55.057Z,13.09
2018-08-28T02:58:15.504Z,13.07
2018-08-28T02:58:36.733Z,13.06
2018-08-28T02:58:56.076Z,13.06
2018-08-28T02:59:16.531Z,13.06
2018-08-28T02:59:37.496Z,13.04
2018-08-28T02:59:57.391Z,13.02
2018-08-28T03:00:18.137Z,13.01
2018-08-28T03:00:38.388Z,13.01
2018-08-28T03:00:58.325Z,12.99
2018-08-28T03:01:19.853Z,12.98
2018-08-28T03:01:39.048Z,12.96
2018-08-28T03:01:58.897Z,12.95
2018-08-28T03:02:20.284Z,12.95
2018-08-28T03:02:39.628Z,12.94
2018-08-28T03:03:00.129Z,12.95
2018-08-28T03:03:21.403Z,12.94
2018-08-28T03:03:40.866Z,12.92
2018-08-28T03:04:01.312Z,12.92
2018-08-28T03:04:22.221Z,12.93
2018-08-28T03:05:02.376Z,12.91
2018-08-28T03:05:22.696Z,12.92
2018-08-28T03:05:42.564Z,12.90
2018-08-28T03:06:03.502Z,12.90
2018-08-28T03:06:23.770Z,12.90
2018-08-28T03:06:43.714Z,12.89
2018-08-28T03:07:04.954Z,12.88
2018-08-28T03:07:24.857Z,12.88
2018-08-28T03:07:44.801Z,12.87
2018-08-28T03:08:06.278Z,12.86
2018-08-28T03:08:25.714Z,12.85
2018-08-28T03:08:46.186Z,12.84
2018-08-28T03:09:07.250Z,12.83
2018-08-28T03:09:26.624Z,12.82
2018-08-28T03:09:47.014Z,12.82
2018-08-28T03:10:07.670Z,12.81
2018-08-28T03:10:27.567Z,12.80
2018-08-28T03:10:48.187Z,12.79
2018-08-28T03:11:08.414Z,12.77
2018-08-28T03:11:28.253Z,12.75
2018-08-28T03:11:49.409Z,12.75
2018-08-28T03:12:09.005Z,12.74
2018-08-28T03:12:28.906Z,12.74
2018-08-28T03:12:50.029Z,12.74
2018-08-28T03:13:09.546Z,12.72
2018-08-28T03:13:29.425Z,12.70
2018-08-28T03:13:50.843Z,12.70
2018-08-28T03:14:10.202Z,12.70
2018-08-28T03:14:30.882Z,12.68
2018-08-28T03:14:51.886Z,12.70
2018-08-28T03:15:10.957Z,12.68
2018-08-28T03:15:30.907Z,12.67
2018-08-28T03:15:51.989Z,12.66
2018-08-28T03:16:11.319Z,12.66
2018-08-28T03:16:31.675Z,12.64
2018-08-28T03:16:52.517Z,12.62
2018-08-28T03:17:12.458Z,12.62
2018-08-28T03:17:32.941Z,12.61
2018-08-28T03:17:53.776Z,12.60
2018-08-28T03:18:13.636Z,12.59
2018-08-28T03:18:34.916Z,12.57
2018-08-28T03:18:54.404Z,12.57
2018-08-28T03:19:14.821Z,12.57
2018-08-28T03:19:36.065Z,12.56
2018-08-28T03:19:55.485Z,12.56
2018-08-28T03:20:16.042Z,12.55
2018-08-28T03:20:36.769Z,12.55
2018-08-28T03:20:56.245Z,12.54
2018-08-28T03:21:16.596Z,12.54
2018-08-28T03:21:37.440Z,12.55
2018-08-28T03:21:57.462Z,12.53
2018-08-28T03:22:17.425Z,12.53
2018-08-28T03:22:38.061Z,12.53
2018-08-28T03:22:58.303Z,12.53
2018-08-28T03:23:18.772Z,12.53
2018-08-28T03:23:38.915Z,12.51
2018-08-28T03:23:58.787Z,12.52
2018-08-28T03:24:20.104Z,12.51
2018-08-28T03:24:39.532Z,12.50
2018-08-28T03:24:59.912Z,12.50
2018-08-28T03:25:21.135Z,12.50
2018-08-28T03:25:40.584Z,12.50
2018-08-28T03:26:01.111Z,12.50
2018-08-28T03:26:21.755Z,12.49
2018-08-28T03:26:41.190Z,12.50
2018-08-28T03:27:01.666Z,12.50
2018-08-28T03:27:22.545Z,12.50
2018-08-28T03:27:42.418Z,12.50
2018-08-28T03:28:02.783Z,12.50
2018-08-28T03:28:23.602Z,12.50
2018-08-28T03:28:43.843Z,12.51
2018-08-28T03:29:04.596Z,12.51
2018-08-28T03:29:24.234Z,12.51
2018-08-28T03:29:44.188Z,12.51
2018-08-28T03:30:05.505Z,12.51
2018-08-28T03:30:24.927Z,12.50
2018-08-28T03:30:45.359Z,12.49
2018-08-28T03:31:06.850Z,12.49
2018-08-28T03:31:26.311Z,12.49
2018-08-28T03:31:46.676Z,12.48
2018-08-28T03:32:07.492Z,12.47
2018-08-28T03:32:27.423Z,12.47
2018-08-28T03:32:47.882Z,12.47
2018-08-28T03:33:08.724Z,12.47
2018-08-28T03:33:28.579Z,12.46
2018-08-28T03:33:49.757Z,12.45
2018-08-28T03:34:09.320Z,12.45
2018-08-28T03:34:29.293Z,12.45
2018-08-28T03:34:50.791Z,12.43
2018-08-28T03:35:10.388Z,12.44
2018-08-28T03:35:30.402Z,12.43
2018-08-28T03:36:10.326Z,12.45
2018-08-28T03:36:30.700Z,12.43
2018-08-28T03:37:11.081Z,12.44
2018-08-28T03:37:31.458Z,12.43
2018-08-28T03:37:52.387Z,12.43
2018-08-28T03:38:12.280Z,12.43
2018-08-28T03:38:32.665Z,12.43
2018-08-28T03:38:53.489Z,12.42
2018-08-28T03:39:13.436Z,12.43
2018-08-28T03:39:34.533Z,12.42
2018-08-28T03:39:54.077Z,12.41
2018-08-28T03:40:14.056Z,12.41
2018-08-28T03:40:35.368Z,12.42
2018-08-28T03:40:54.737Z,12.41
2018-08-28T03:41:15.175Z,12.40
2018-08-28T03:41:36.502Z,12.40
2018-08-28T03:41:55.967Z,12.39
2018-08-28T03:42:16.407Z,12.39
2018-08-28T03:42:37.375Z,12.39
2018-08-28T03:42:57.273Z,12.38
2018-08-28T03:43:17.754Z,12.37
2018-08-28T03:43:38.473Z,12.37
2018-08-28T03:43:58.396Z,12.35
2018-08-28T03:44:19.726Z,12.34
2018-08-28T03:44:39.431Z,12.32
2018-08-28T03:44:59.252Z,12.32
2018-08-28T03:45:20.752Z,12.32
2018-08-28T03:45:39.717Z,12.30
2018-08-28T03:46:00.169Z,12.29
2018-08-28T03:46:21.479Z,12.28
2018-08-28T03:46:40.906Z,12.28
2018-08-28T03:47:01.282Z,12.28
2018-08-28T03:47:22.421Z,12.27
2018-08-28T03:47:41.841Z,12.27
2018-08-28T03:48:02.622Z,12.26
2018-08-28T03:48:22.833Z,12.26
2018-08-28T03:48:42.768Z,12.24
2018-08-28T03:49:04.096Z,12.24
2018-08-28T03:49:23.756Z,12.23
2018-08-28T03:49:43.692Z,12.22
2018-08-28T03:50:05.037Z,12.22
2018-08-28T03:50:24.691Z,12.20
2018-08-28T03:50:44.663Z,12.20
2018-08-28T03:51:05.945Z,12.20
2018-08-28T03:51:25.350Z,12.18
2018-08-28T03:51:45.749Z,12.19
2018-08-28T03:52:26.119Z,12.19
2018-08-28T03:52:46.493Z,12.18
2018-08-28T03:53:07.163Z,12.18
2018-08-28T03:53:27.031Z,12.16
2018-08-28T03:53:47.413Z,12.16
2018-08-28T03:54:08.061Z,12.15
2018-08-28T03:54:27.955Z,12.15
2018-08-28T03:54:48.879Z,12.14
2018-08-28T03:55:09.054Z,12.14
2018-08-28T03:55:28.919Z,12.13
2018-08-28T03:55:50.209Z,12.14
2018-08-28T03:56:09.774Z,12.13
2018-08-28T03:56:29.703Z,12.12
2018-08-28T03:56:51.034Z,12.11
2018-08-28T03:57:10.395Z,12.09
2018-08-28T03:57:30.839Z,12.08
2018-08-28T03:57:51.865Z,12.07
2018-08-28T03:58:11.467Z,12.07
2018-08-28T03:58:31.363Z,12.06
2018-08-28T03:58:52.569Z,12.06
2018-08-28T03:59:12.071Z,12.05
2018-08-28T03:59:31.930Z,12.05
2018-08-28T03:59:52.636Z,12.04
2018-08-28T04:00:12.769Z,12.02
2018-08-28T04:00:33.142Z,12.00
2018-08-28T04:00:53.322Z,11.98
2018-08-28T04:01:13.269Z,11.95
2018-08-28T04:01:34.477Z,11.94
2018-08-28T04:01:54.216Z,11.93
2018-08-28T04:02:14.236Z,11.92
2018-08-28T04:02:54.351Z,11.93
2018-08-28T04:03:14.325Z,11.90
2018-08-28T04:03:35.643Z,11.90
2018-08-28T04:03:55.081Z,11.90
2018-08-28T04:04:15.543Z,11.90
2018-08-28T04:04:36.854Z,11.89
2018-08-28T04:04:56.319Z,11.88
2018-08-28T04:05:16.947Z,11.87
2018-08-28T04:05:37.412Z,11.87
2018-08-28T04:05:57.316Z,11.85
2018-08-28T04:06:17.834Z,11.84
2018-08-28T04:06:38.036Z,11.83
2018-08-28T04:06:57.885Z,11.83
2018-08-28T04:07:18.959Z,11.81
2018-08-28T04:07:38.830Z,11.81
2018-08-28T04:07:58.685Z,11.79
2018-08-28T04:08:20.094Z,11.79
2018-08-28T04:08:39.457Z,11.77
2018-08-28T04:08:59.905Z,11.76
2018-08-28T04:09:21.219Z,11.75
2018-08-28T04:09:40.685Z,11.74
2018-08-28T04:10:01.128Z,11.73
2018-08-28T04:10:22.184Z,11.72
2018-08-28T04:10:41.746Z,11.72
2018-08-28T04:11:01.605Z,11.71
2018-08-28T04:11:22.576Z,11.71
2018-08-28T04:11:42.489Z,11.70
2018-08-28T04:12:03.526Z,11.69
2018-08-28T04:12:23.289Z,11.69
2018-08-28T04:13:03.744Z,11.69
2018-08-28T04:13:24.111Z,11.68
2018-08-28T04:13:44.271Z,11.68
2018-08-28T04:14:05.173Z,11.65
2018-08-28T04:14:24.645Z,11.65
2018-08-28T04:14:45.088Z,11.66
2018-08-28T04:15:06.408Z,11.64
2018-08-28T04:15:25.837Z,11.64
2018-08-28T04:15:46.201Z,11.64
2018-08-28T04:16:07.238Z,11.64
2018-08-28T04:16:26.697Z,11.63
2018-08-28T04:16:47.144Z,11.62
2018-08-28T04:17:07.904Z,11.63
2018-08-28T04:17:27.802Z,11.60
2018-08-28T04:18:08.386Z,11.59
2018-08-28T04:18:28.315Z,11.57
2018-08-28T04:18:49.436Z,11.56
2018-08-28T04:19:09.210Z,11.55
2018-08-28T04:19:29.147Z,11.53
2018-08-28T04:19:50.071Z,11.52
2018-08-28T04:20:10.034Z,11.53
2018-08-28T04:20:30.390Z,11.52
2018-08-28T04:20:51.702Z,11.50
2018-08-28T04:21:11.131Z,11.50
2018-08-28T04:21:31.512Z,11.50
2018-08-28T04:21:52.358Z,11.48
2018-08-28T04:22:12.300Z,11.49
2018-08-28T04:22:32.777Z,11.48
2018-08-28T04:22:53.472Z,11.50
2018-08-28T04:23:13.420Z,11.49
2018-08-28T04:23:34.724Z,11.47
2018-08-28T04:23:54.426Z,11.47
2018-08-28T04:24:14.329Z,11.46
2018-08-28T04:24:35.663Z,11.46
2018-08-28T04:24:55.253Z,11.46
2018-08-28T04:25:16.119Z,11.44
2018-08-28T04:25:36.376Z,11.45
2018-08-28T04:25:55.804Z,11.43
2018-08-28T04:26:16.224Z,11.43
2018-08-28T04:26:37.229Z,11.44
2018-08-28T04:26:56.629Z,11.43
2018-08-28T04:27:17.009Z,11.43
2018-08-28T04:27:37.718Z,11.43
2018-08-28T04:27:57.658Z,11.42